Time;durP1;ratioP1;P1;durP2;ratioP2;P2;SDS_P1;SDS_P2;PMS_P1;PMS_P2;Temp;Humidity;BMP_temperature;BMP_pressure;BME280_temperature;BME280_humidity;BME280_pressure;Samples;Min_cycle;Max_cycle;Signal;HPM_P1;HPM_P2
2021/03/21 00:00:44;;;;;;;9.90;5.30;;;;;;;-1.99;61.83;96341.50;5014511;28;20057;-53
2021/03/21 00:03:12;;;;;;;8.45;4.82;;;;;;;-1.93;61.35;96345.84;5002669;28;20099;-48
2021/03/21 00:05:39;;;;;;;12.75;7.30;;;;;;;-1.86;61.83;96341.16;5013641;28;20116;-47
2021/03/21 00:08:11;;;;;;;13.20;6.70;;;;;;;-1.97;61.44;96340.22;5013503;28;20129;-47
2021/03/21 00:10:38;;;;;;;10.13;5.82;;;;;;;-1.89;61.67;96334.50;5013250;28;20054;-49
2021/03/21 00:13:04;;;;;;;9.60;5.82;;;;;;;-2.05;61.96;96339.81;5012672;28;20065;-47
2021/03/21 00:15:32;;;;;;;10.90;4.60;;;;;;;-2.02;61.90;96342.78;5007132;28;20054;-46
2021/03/21 00:18:00;;;;;;;10.10;4.43;;;;;;;-1.95;62.25;96339.97;5012687;28;20068;-46
2021/03/21 00:20:31;;;;;;;7.68;4.72;;;;;;;-1.97;61.80;96332.25;5011398;28;20137;-49
2021/03/21 00:22:57;;;;;;;7.63;4.90;;;;;;;-1.96;62.51;96327.75;5012000;28;20053;-47
2021/03/21 00:25:25;;;;;;;9.00;4.88;;;;;;;-1.77;61.69;96331.75;5012526;28;20068;-48
2021/03/21 00:27:52;;;;;;;10.18;5.75;;;;;;;-1.81;61.81;96330.63;4993015;28;20054;-48
2021/03/21 00:30:25;;;;;;;9.63;5.55;;;;;;;-1.80;62.04;96324.28;5005650;28;20054;-51
2021/03/21 00:32:53;;;;;;;7.95;4.38;;;;;;;-2.02;62.01;96324.22;5013227;28;20141;-48
2021/03/21 00:35:22;;;;;;;9.50;4.85;;;;;;;-2.07;62.31;96328.66;5012165;28;20092;-46
2021/03/21 00:37:48;;;;;;;9.15;5.55;;;;;;;-2.00;62.43;96326.63;5003177;28;20456;-47
2021/03/21 00:40:19;;;;;;;8.82;4.72;;;;;;;-1.94;61.41;96329.13;5010357;28;20054;-49
2021/03/21 00:42:47;;;;;;;10.85;5.13;;;;;;;-1.94;61.90;96321.16;5012167;28;20050;-48
2021/03/21 00:45:17;;;;;;;8.65;5.03;;;;;;;-1.92;62.40;96323.56;5012302;28;20072;-48
2021/03/21 00:47:44;;;;;;;9.15;5.05;;;;;;;-1.78;62.27;96319.53;5011527;28;20483;-47
2021/03/21 00:50:16;;;;;;;7.88;4.65;;;;;;;-1.85;62.21;96320.75;5022121;28;20045;-47
2021/03/21 00:52:43;;;;;;;7.75;5.07;;;;;;;-1.90;62.34;96313.53;5015815;28;20052;-46
2021/03/21 00:55:12;;;;;;;9.05;5.00;;;;;;;-2.08;62.84;96311.13;5012249;28;20063;-45
2021/03/21 00:57:40;;;;;;;8.48;4.97;;;;;;;-2.15;63.31;96308.66;5032016;28;20556;-48
2021/03/21 01:00:18;;;;;;;9.13;4.97;;;;;;;-2.13;63.20;96306.56;5021006;28;20494;-48
2021/03/21 01:02:45;;;;;;;9.98;5.32;;;;;;;-2.07;63.10;96299.50;5017534;28;20050;-47
2021/03/21 01:05:19;;;;;;;8.85;5.20;;;;;;;-2.03;63.04;96300.63;5016364;28;20127;-47
2021/03/21 01:07:48;;;;;;;11.07;5.25;;;;;;;-2.11;62.58;96293.88;5015659;28;20054;-50
2021/03/21 01:10:15;;;;;;;7.00;3.95;;;;;;;-2.13;62.40;96293.31;5012996;28;20057;-48
2021/03/21 01:12:46;;;;;;;10.07;5.18;;;;;;;-2.06;62.83;96293.13;4993558;28;20408;-46
2021/03/21 01:15:13;;;;;;;6.65;3.90;;;;;;;-2.20;62.28;96284.72;4998649;28;20045;-51
2021/03/21 01:17:39;;;;;;;8.90;4.47;;;;;;;-2.09;62.59;96294.41;5016811;28;20487;-46
2021/03/21 01:20:07;;;;;;;8.93;5.10;;;;;;;-2.09;62.80;96291.78;5024824;28;20087;-46
2021/03/21 01:22:33;;;;;;;6.88;4.28;;;;;;;-2.01;62.26;96294.03;5025519;28;20050;-49
2021/03/21 01:25:00;;;;;;;8.23;4.90;;;;;;;-2.18;62.53;96294.06;5011948;28;20053;-48
2021/03/21 01:27:28;;;;;;;8.35;4.60;;;;;;;-2.07;62.81;96279.09;5012190;28;20077;-49
2021/03/21 01:29:54;;;;;;;8.27;4.43;;;;;;;-2.15;62.32;96284.78;5012221;28;20121;-46
2021/03/21 01:32:21;;;;;;;11.32;4.95;;;;;;;-2.12;62.44;96282.44;5011807;28;20061;-48
2021/03/21 01:34:47;;;;;;;8.45;4.80;;;;;;;-2.12;62.75;96269.19;5012796;28;20061;-48
2021/03/21 01:37:14;;;;;;;10.88;5.00;;;;;;;-2.18;62.81;96264.06;5029112;28;20150;-51
2021/03/21 01:39:40;;;;;;;8.13;4.65;;;;;;;-2.13;62.72;96266.81;4993781;28;20120;-50
2021/03/21 01:42:10;;;;;;;7.75;4.30;;;;;;;-2.29;62.49;96260.47;5012366;28;20045;-47
2021/03/21 01:44:38;;;;;;;8.30;4.63;;;;;;;-2.24;62.30;96257.06;5012391;28;20042;-48
2021/03/21 01:47:27;;;;;;;8.07;4.72;;;;;;;-2.28;62.45;96256.75;5011604;28;20054;-49
2021/03/21 01:49:53;;;;;;;7.80;4.75;;;;;;;-2.20;62.44;96256.38;5012082;28;20124;-50
2021/03/21 01:52:30;;;;;;;7.85;4.70;;;;;;;-2.21;62.26;96249.47;5011883;28;20046;-48
2021/03/21 01:54:57;;;;;;;7.43;4.55;;;;;;;-2.02;61.81;96243.88;5012007;28;20050;-48
2021/03/21 01:57:26;;;;;;;6.97;4.60;;;;;;;-2.05;61.68;96237.22;5011615;28;20057;-47
2021/03/21 01:59:54;;;;;;;7.68;4.38;;;;;;;-2.14;61.24;96236.03;5012277;28;20054;-51
2021/03/21 02:02:21;;;;;;;9.07;5.18;;;;;;;-2.02;61.62;96223.47;5027488;28;20046;-50
2021/03/21 02:04:47;;;;;;;8.90;5.18;;;;;;;-2.00;61.16;96223.22;5012588;28;20042;-47
2021/03/21 02:07:19;;;;;;;8.07;4.63;;;;;;;-2.02;60.98;96220.81;5011469;28;20049;-51
2021/03/21 02:10:04;;;;;;;7.95;4.32;;;;;;;-2.06;61.72;96217.06;5011715;28;20420;-51
2021/03/21 02:12:51;;;;;;;7.53;4.90;;;;;;;-2.12;61.56;96212.72;5011581;28;20384;-49
2021/03/21 02:15:36;;;;;;;8.00;4.85;;;;;;;-2.19;61.67;96212.91;5011913;28;20050;-47
2021/03/21 02:18:18;;;;;;;6.82;3.58;;;;;;;-2.19;61.11;96220.06;5011086;28;20065;-48
2021/03/21 02:21:08;;;;;;;7.50;4.35;;;;;;;-2.10;60.59;96215.16;5011874;28;20046;-48
2021/03/21 02:24:02;;;;;;;8.20;4.97;;;;;;;-1.94;60.66;96211.66;5012072;28;20050;-48
2021/03/21 02:26:58;;;;;;;8.10;4.57;;;;;;;-1.72;60.34;96217.75;4991941;28;20058;-51
2021/03/21 02:29:42;;;;;;;8.55;4.38;;;;;;;-1.90;59.82;96224.16;5005234;28;20058;-48
2021/03/21 02:32:29;;;;;;;8.45;4.50;;;;;;;-2.08;60.32;96213.03;4992461;28;20053;-50
2021/03/21 02:34:56;;;;;;;7.30;4.43;;;;;;;-2.06;60.38;96210.94;4991822;28;20069;-51
2021/03/21 02:37:33;;;;;;;8.40;4.63;;;;;;;-2.03;60.68;96207.81;4998253;28;20061;-48
2021/03/21 02:40:05;;;;;;;7.82;4.00;;;;;;;-2.10;60.02;96207.19;5011805;28;20042;-48
2021/03/21 02:42:38;;;;;;;8.30;4.87;;;;;;;-1.99;59.86;96203.63;5011251;28;20096;-49
2021/03/21 02:45:08;;;;;;;;;;;;;;;-2.12;60.00;96196.81;5010579;28;20460;-52
2021/03/21 02:47:34;;;;;;;6.72;3.92;;;;;;;-2.08;59.98;96197.13;4999974;28;19976;-48
2021/03/21 02:50:12;;;;;;;6.88;4.25;;;;;;;-2.07;59.71;96193.44;5011319;28;20074;-48
2021/03/21 02:52:45;;;;;;;7.85;4.72;;;;;;;-2.01;59.99;96184.53;4991530;28;20558;-49
2021/03/21 02:55:18;;;;;;;8.02;4.38;;;;;;;-1.95;60.08;96183.50;5001647;28;20053;-48
2021/03/21 02:57:50;;;;;;;7.90;4.28;;;;;;;-1.84;59.74;96185.25;4995181;28;20065;-48
2021/03/21 03:00:24;;;;;;;8.45;4.40;;;;;;;-1.85;59.15;96190.78;5010255;28;20444;-50
2021/03/21 03:02:59;;;;;;;7.18;4.00;;;;;;;-1.99;59.93;96174.44;5001593;28;20427;-47
2021/03/21 03:05:34;;;;;;;6.70;4.13;;;;;;;-2.05;59.74;96180.72;4991655;28;20062;-51
2021/03/21 03:08:28;;;;;;;6.95;4.18;;;;;;;-1.82;59.71;96175.22;5004237;28;20400;-47
2021/03/21 03:11:04;;;;;;;7.55;4.03;;;;;;;-1.99;59.89;96175.25;5010091;28;20112;-51
2021/03/21 03:13:41;;;;;;;10.32;4.93;;;;;;;-1.77;59.73;96167.28;5010714;28;20049;-48
2021/03/21 03:16:26;;;;;;;8.00;4.40;;;;;;;-2.06;59.92;96161.38;5003385;28;20495;-47
2021/03/21 03:19:33;;;;;;;6.97;4.20;;;;;;;-2.00;59.81;96155.09;5003687;28;20060;-50
2021/03/21 03:21:59;;;;;;;6.57;3.80;;;;;;;-1.93;59.96;96162.88;4968807;28;20055;-48
2021/03/21 03:24:50;;;;;;;7.88;3.83;;;;;;;-2.00;59.89;96159.59;5003778;28;20384;-49
2021/03/21 03:27:31;;;;;;;9.73;4.32;;;;;;;-1.94;59.57;96161.28;4990911;28;20515;-50
2021/03/21 03:30:06;;;;;;;6.90;4.50;;;;;;;-1.83;59.85;96162.97;4991329;28;20108;-48
2021/03/21 03:32:33;;;;;;;6.10;3.50;;;;;;;-2.02;59.74;96159.03;4990818;28;20050;-52
2021/03/21 03:35:05;;;;;;;8.52;4.38;;;;;;;-1.97;60.02;96151.94;5010426;28;20046;-48
2021/03/21 03:37:31;;;;;;;7.75;4.53;;;;;;;-2.01;60.00;96150.06;5009747;28;20057;-49
2021/03/21 03:39:58;;;;;;;7.78;4.53;;;;;;;-2.02;60.50;96148.44;5010140;28;20503;-49
2021/03/21 03:42:30;;;;;;;8.10;4.63;;;;;;;-2.10;60.29;96152.31;5010861;28;20057;-48
2021/03/21 03:45:21;;;;;;;7.07;3.85;;;;;;;-2.06;60.93;96142.03;5010010;28;20116;-48
2021/03/21 03:48:02;;;;;;;8.45;4.35;;;;;;;-2.07;60.79;96135.94;5008707;28;20058;-51
2021/03/21 03:50:49;;;;;;;6.65;4.07;;;;;;;-1.97;60.61;96135.25;5036035;22;20076;-47
2021/03/21 03:53:44;;;;;;;7.55;3.80;;;;;;;-2.07;61.04;96132.47;5029926;28;20046;-46
2021/03/21 03:56:16;;;;;;;7.78;4.20;;;;;;;-2.14;61.13;96120.22;5028034;28;20135;-49
2021/03/21 03:59:01;;;;;;;7.00;4.07;;;;;;;-2.12;61.37;96117.28;5031230;28;20046;-44
2021/03/21 04:01:38;;;;;;;6.95;3.72;;;;;;;-2.12;61.22;96115.44;5033075;28;20060;-42
2021/03/21 04:04:30;;;;;;;6.90;4.07;;;;;;;-2.13;61.37;96124.44;5025655;28;20104;-45
2021/03/21 04:07:44;;;;;;;7.80;3.65;;;;;;;-2.14;60.99;96119.41;5026485;28;20495;-45
2021/03/21 04:10:24;;;;;;;8.73;4.15;;;;;;;-2.10;61.15;96111.75;5005434;28;20056;-46
2021/03/21 04:13:30;;;;;;;8.02;4.00;;;;;;;-2.07;61.20;96116.56;5034004;28;20077;-44
2021/03/21 04:15:59;;;;;;;8.35;4.18;;;;;;;-2.01;61.33;96116.38;5024994;28;20053;-46
2021/03/21 04:18:39;;;;;;;8.70;4.50;;;;;;;-2.05;60.98;96117.09;5023328;28;20057;-44
2021/03/21 04:21:24;;;;;;;8.52;4.28;;;;;;;-2.10;61.23;96104.59;5032188;28;20052;-44
2021/03/21 04:24:18;;;;;;;7.00;4.13;;;;;;;-1.95;61.26;96117.22;5032766;28;20056;-47
2021/03/21 04:27:02;;;;;;;;;;;;;;;-1.98;60.88;96109.75;5008282;28;20061;-44
2021/03/21 04:29:36;;;;;;;6.95;4.25;;;;;;;-1.83;60.97;96114.44;5031786;28;19921;-47
2021/03/21 04:32:10;;;;;;;7.68;4.18;;;;;;;-1.79;60.80;96111.03;5029764;28;20406;-44
2021/03/21 04:34:41;;;;;;;8.10;4.25;;;;;;;-1.86;60.82;96099.81;5030028;28;20050;-45
2021/03/21 04:37:10;;;;;;;8.32;4.30;;;;;;;-1.84;60.87;96100.38;5027295;28;20124;-46
2021/03/21 04:39:37;;;;;;;6.10;4.05;;;;;;;-1.92;60.69;96095.50;5031912;28;20050;-44
2021/03/21 04:42:21;;;;;;;7.63;3.83;;;;;;;-1.91;60.65;96082.03;5032751;28;20053;-43
2021/03/21 04:44:47;;;;;;;;;;;;;;;-1.96;61.00;96091.75;5031011;28;20126;-46
2021/03/21 04:47:26;;;;;;;7.15;4.00;;;;;;;-1.87;60.26;96095.56;5019009;28;19925;-47
2021/03/21 04:49:57;;;;;;;7.03;3.97;;;;;;;-1.92;60.41;96087.56;5013681;28;20050;-45
2021/03/21 04:52:42;;;;;;;7.40;4.30;;;;;;;-1.84;60.44;96091.63;5031541;28;20418;-44
2021/03/21 04:55:16;;;;;;;8.40;4.30;;;;;;;-1.83;60.75;96096.69;5015261;28;20053;-47
2021/03/21 04:57:47;;;;;;;8.48;4.25;;;;;;;-1.69;60.11;96089.94;5014556;28;20064;-46
2021/03/21 05:00:39;;;;;;;8.23;4.28;;;;;;;-1.77;60.43;96098.34;5033131;28;20060;-45
2021/03/21 05:03:21;;;;;;;6.35;3.67;;;;;;;-1.70;60.13;96104.22;5026189;28;20045;-44
2021/03/21 05:06:01;;;;;;;8.02;4.38;;;;;;;-1.58;60.29;96108.59;5032426;28;20076;-47
2021/03/21 05:08:35;;;;;;;8.55;4.55;;;;;;;-1.66;59.99;96107.19;5029571;28;20071;-45
2021/03/21 05:11:06;;;;;;;7.65;4.30;;;;;;;-1.92;60.38;96101.63;5032663;28;20064;-45
2021/03/21 05:13:40;;;;;;;9.25;4.05;;;;;;;-1.92;60.57;96103.47;5033161;28;20056;-46
2021/03/21 05:16:18;;;;;;;8.80;4.28;;;;;;;-1.71;60.39;96102.63;5030814;28;20060;-44
2021/03/21 05:18:52;;;;;;;6.63;3.90;;;;;;;-1.77;60.89;96102.84;5014865;28;20144;-44
2021/03/21 05:21:27;;;;;;;6.63;3.90;;;;;;;-1.83;60.90;96099.31;5031098;28;20661;-45
2021/03/21 05:24:02;;;;;;;7.88;3.92;;;;;;;-1.82;60.84;96098.28;5032933;28;20100;-43
2021/03/21 05:26:35;;;;;;;6.18;3.42;;;;;;;-1.95;61.14;96101.31;5027314;28;20054;-45
2021/03/21 05:29:04;;;;;;;;;;;;;;;-1.86;61.09;96107.78;5005573;28;20395;-44
2021/03/21 05:31:31;;;;;;;5.93;3.25;;;;;;;-1.86;61.14;96101.69;5032686;28;19928;-44
2021/03/21 05:34:00;;;;;;;6.25;3.55;;;;;;;-1.61;60.83;96099.28;5029210;28;20359;-45
2021/03/21 05:36:49;;;;;;;6.95;3.03;;;;;;;-1.80;60.66;96104.13;5029694;28;20038;-44
2021/03/21 05:39:25;;;;;;;7.00;3.45;;;;;;;-1.75;60.70;96101.53;5031678;28;20428;-45
2021/03/21 05:42:06;;;;;;;8.75;3.47;;;;;;;-1.71;60.68;96089.38;5032597;28;20072;-45
2021/03/21 05:44:38;;;;;;;5.63;3.22;;;;;;;-1.69;60.58;96091.78;5031524;28;20057;-45
2021/03/21 05:47:35;;;;;;;7.53;4.32;;;;;;;-1.65;60.61;96096.34;5028618;28;20494;-43
2021/03/21 05:50:05;;;;;;;6.57;3.65;;;;;;;-1.65;60.26;96112.25;5031392;28;20053;-43
2021/03/21 05:52:52;;;;;;;5.53;2.92;;;;;;;-1.54;60.62;96101.75;5031331;28;20418;-43
2021/03/21 05:55:41;;;;;;;9.10;3.53;;;;;;;-1.70;60.48;96098.94;5015125;28;20057;-45
2021/03/21 05:58:30;;;;;;;7.00;3.50;;;;;;;-1.68;60.73;96091.53;5026762;28;20593;-44
2021/03/21 06:01:11;;;;;;;4.90;2.97;;;;;;;-1.68;60.29;96096.03;5032101;28;20128;-43
2021/03/21 06:03:46;;;;;;;6.10;4.03;;;;;;;-1.60;60.66;96092.13;5034736;28;20476;-46
2021/03/21 06:06:35;;;;;;;7.35;3.05;;;;;;;-1.58;60.51;96092.69;5050869;28;20057;-45
2021/03/21 06:09:30;;;;;;;5.13;2.85;;;;;;;-1.65;60.62;96085.72;5026047;28;20058;-45
2021/03/21 06:12:00;;;;;;;7.15;3.42;;;;;;;-1.50;60.55;96086.91;4995854;28;20422;-45
2021/03/21 06:14:48;;;;;;;7.65;3.78;;;;;;;-1.45;60.05;96084.31;5031965;28;20442;-47
2021/03/21 06:17:36;;;;;;;5.47;2.83;;;;;;;-1.44;59.85;96069.97;5027610;28;20396;-44
2021/03/21 06:20:12;;;;;;;5.38;3.05;;;;;;;-1.43;59.86;96067.09;5038364;28;20045;-44
2021/03/21 06:23:09;;;;;;;5.75;3.30;;;;;;;-1.44;59.90;96069.97;5043721;28;20053;-43
2021/03/21 06:25:54;;;;;;;8.05;3.58;;;;;;;-1.39;59.65;96064.72;5012346;28;20049;-44
2021/03/21 06:28:42;;;;;;;6.68;3.40;;;;;;;-1.33;59.56;96062.91;5029324;28;20053;-44
2021/03/21 06:31:44;;;;;;;5.40;3.03;;;;;;;-1.39;59.37;96067.38;5029423;28;20050;-44
2021/03/21 06:34:56;;;;;;;6.75;4.03;;;;;;;-1.34;59.55;96062.09;5014635;28;20046;-47
2021/03/21 06:37:54;;;;;;;5.78;3.03;;;;;;;-1.28;59.45;96057.66;5014276;28;20065;-46
2021/03/21 06:40:50;;;;;;;5.53;3.20;;;;;;;-1.25;59.83;96055.28;5040005;28;20053;-48
2021/03/21 06:43:26;;;;;;;5.18;3.08;;;;;;;-1.21;59.09;96061.69;5031937;28;20495;-47
2021/03/21 06:46:27;;;;;;;5.57;3.70;;;;;;;-1.27;58.82;96060.06;5016514;28;20068;-45
2021/03/21 06:49:32;;;;;;;7.65;3.35;;;;;;;-1.26;58.91;96051.03;4994187;28;20095;-46
2021/03/21 06:52:26;;;;;;;6.47;3.00;;;;;;;-1.24;58.62;96037.50;5032011;28;20518;-44
2021/03/21 06:55:11;;;;;;;7.30;3.38;;;;;;;-1.12;58.77;96047.94;5016498;28;20050;-46
2021/03/21 06:58:10;;;;;;;7.22;3.10;;;;;;;-0.87;58.10;96037.50;5014439;28;20076;-44
2021/03/21 07:00:57;;;;;;;5.78;3.35;;;;;;;-0.86;57.68;96041.75;5030548;28;20552;-47
2021/03/21 07:03:38;;;;;;;4.97;2.92;;;;;;;-0.79;57.59;96036.19;5015467;28;20061;-45
2021/03/21 07:06:27;;;;;;;5.97;3.20;;;;;;;-0.74;56.95;96044.22;5032021;28;20049;-44
2021/03/21 07:09:28;;;;;;;6.28;3.20;;;;;;;-0.74;56.82;96036.22;5025816;28;20461;-47
2021/03/21 07:12:14;;;;;;;6.63;3.40;;;;;;;-0.81;57.09;96041.78;5028004;28;20054;-44
2021/03/21 07:14:56;;;;;;;6.80;3.22;;;;;;;-0.76;57.18;96028.50;5031665;28;20081;-45
2021/03/21 07:17:25;;;;;;;5.57;2.78;;;;;;;-0.98;57.33;96022.53;5014976;28;20092;-49
2021/03/21 07:19:51;;;;;;;7.70;3.05;;;;;;;-0.96;57.55;96018.56;5029930;28;20053;-45
2021/03/21 07:22:46;;;;;;;5.68;3.45;;;;;;;-0.81;57.77;96030.34;5029820;28;20054;-44
2021/03/21 07:25:41;;;;;;;5.95;2.90;;;;;;;-0.69;57.10;96016.84;5014250;28;20124;-47
2021/03/21 07:28:38;;;;;;;5.70;3.10;;;;;;;-0.74;57.02;96023.75;5002856;28;20402;-47
2021/03/21 07:31:26;;;;;;;5.35;3.30;;;;;;;-0.72;56.84;96024.28;5029711;28;20540;-46
2021/03/21 07:34:11;;;;;;;5.25;3.15;;;;;;;-0.64;56.51;96019.53;5024063;28;20100;-47
2021/03/21 07:36:49;;;;;;;4.35;2.58;;;;;;;-0.71;56.68;96020.56;5015135;28;20503;-47
2021/03/21 07:39:29;;;;;;;4.47;2.72;;;;;;;-0.50;56.35;96016.13;5031694;28;20059;-44
2021/03/21 07:42:06;;;;;;;4.53;2.20;;;;;;;-0.73;55.82;96006.75;5035400;28;20053;-47
2021/03/21 07:45:00;;;;;;;6.57;3.10;;;;;;;-0.73;55.90;95992.66;5034312;28;20054;-45
2021/03/21 07:47:32;;;;;;;7.00;2.78;;;;;;;-0.60;55.44;95991.38;5022179;28;20063;-48
2021/03/21 07:50:37;;;;;;;5.20;3.22;;;;;;;-0.57;55.27;95982.91;5032956;28;20495;-47
2021/03/21 07:53:33;;;;;;;4.72;3.00;;;;;;;-0.47;54.99;95988.25;5013491;28;20408;-46
2021/03/21 07:56:12;;;;;;;5.57;3.10;;;;;;;-0.49;55.31;95993.00;5009297;28;20120;-44
2021/03/21 07:58:49;;;;;;;8.30;3.45;;;;;;;-0.36;55.00;96005.81;5024444;28;20140;-45
2021/03/21 08:01:21;;;;;;;5.78;2.83;;;;;;;-0.33;54.40;95999.97;5034950;28;20049;-46
2021/03/21 08:04:30;;;;;;;5.57;3.10;;;;;;;-0.22;53.98;96008.00;5029402;28;20073;-46
2021/03/21 08:07:07;;;;;;;5.82;2.45;;;;;;;-0.41;54.44;96003.16;5013630;28;20140;-47
2021/03/21 08:09:38;;;;;;;5.30;3.10;;;;;;;-0.43;54.30;95999.94;5032617;28;20049;-48
2021/03/21 08:12:21;;;;;;;5.88;3.00;;;;;;;-0.52;54.55;96009.47;5034545;28;20057;-45
2021/03/21 08:14:49;;;;;;;6.10;3.40;;;;;;;-0.48;55.08;96005.28;5034451;28;20073;-45
2021/03/21 08:17:23;;;;;;;5.18;3.08;;;;;;;-0.11;54.02;96002.44;5026321;28;20042;-48
2021/03/21 08:19:55;;;;;;;4.97;2.55;;;;;;;-0.11;54.47;96007.75;5034477;28;20144;-44
2021/03/21 08:22:26;;;;;;;5.80;2.80;;;;;;;0.10;53.78;96008.63;5034093;28;20680;-43
2021/03/21 08:24:58;;;;;;;6.88;3.20;;;;;;;0.10;53.39;96013.13;5031574;28;20076;-45
2021/03/21 08:27:32;;;;;;;4.75;3.03;;;;;;;0.01;53.91;96001.44;5030472;28;20057;-48
2021/03/21 08:30:00;;;;;;;5.15;2.78;;;;;;;-0.02;53.91;96008.06;5022530;28;20041;-47
2021/03/21 08:32:29;;;;;;;4.78;2.70;;;;;;;-0.06;53.72;96002.47;5032632;28;20423;-45
2021/03/21 08:35:15;;;;;;;6.20;3.00;;;;;;;0.11;53.20;95999.56;5033106;28;20069;-45
2021/03/21 08:37:48;;;;;;;5.40;3.15;;;;;;;0.05;53.45;95997.97;5025744;28;20139;-45
2021/03/21 08:40:36;;;;;;;4.07;2.28;;;;;;;-0.04;53.90;96002.19;5033067;28;20127;-48
2021/03/21 08:43:09;;;;;;;6.15;2.83;;;;;;;-0.05;53.20;96006.72;5029450;28;20061;-46
2021/03/21 08:45:42;;;;;;;5.38;3.20;;;;;;;-0.03;52.88;95993.19;5025333;28;20056;-47
2021/03/21 08:48:13;;;;;;;7.57;2.80;;;;;;;-0.07;53.19;95998.19;5016272;28;20095;-44
2021/03/21 08:50:59;;;;;;;6.43;3.22;;;;;;;-0.16;53.26;95998.97;5031803;28;20049;-46
2021/03/21 08:53:55;;;;;;;6.05;2.95;;;;;;;-0.13;53.20;95988.63;5034084;28;20061;-44
2021/03/21 08:56:37;;;;;;;6.22;2.72;;;;;;;-0.10;53.63;95988.09;5022665;28;20080;-46
2021/03/21 08:59:13;;;;;;;5.93;3.47;;;;;;;0.01;53.54;95970.31;5030171;28;20120;-46
2021/03/21 09:01:41;;;;;;;6.60;3.58;;;;;;;0.00;53.23;95966.06;5030876;28;20467;-47
2021/03/21 09:04:15;;;;;;;6.53;3.00;;;;;;;0.08;53.51;95968.19;5032234;28;20541;-47
2021/03/21 09:06:44;;;;;;;5.55;3.17;;;;;;;0.05;53.74;95976.69;5027901;28;20470;-47
2021/03/21 09:09:23;;;;;;;6.25;3.13;;;;;;;0.13;54.15;95970.84;5026251;28;20053;-46
2021/03/21 09:11:59;;;;;;;5.97;2.85;;;;;;;-0.07;53.78;95974.25;5027915;28;20083;-49
2021/03/21 09:14:31;;;;;;;6.07;3.05;;;;;;;0.05;53.96;95973.22;5017578;28;21898;-46
2021/03/21 09:17:06;;;;;;;6.75;3.80;;;;;;;0.04;53.96;95964.44;5020468;28;20558;-44
2021/03/21 09:19:36;;;;;;;7.10;2.88;;;;;;;0.34;53.43;95965.53;5017567;28;20053;-44
2021/03/21 09:22:33;;;;;;;7.60;3.10;;;;;;;0.32;53.51;95970.31;5014286;28;20120;-45
2021/03/21 09:25:25;;;;;;;4.85;2.85;;;;;;;0.29;53.34;95968.19;5025288;28;20115;-47
2021/03/21 09:27:55;;;;;;;5.95;2.80;;;;;;;0.22;53.57;95963.91;5029654;28;20069;-48
2021/03/21 09:30:30;;;;;;;8.38;2.60;;;;;;;-0.06;54.05;95957.25;5028057;28;20569;-45
2021/03/21 09:33:01;;;;;;;5.22;3.22;;;;;;;0.04;54.45;95959.13;5026078;28;20083;-47
2021/03/21 09:35:31;;;;;;;6.93;3.40;;;;;;;0.22;54.03;95966.56;5034824;28;20057;-49
2021/03/21 09:38:19;;;;;;;9.27;5.03;;;;;;;0.36;54.02;95968.75;5013124;28;20077;-46
2021/03/21 09:40:59;;;;;;;8.05;3.40;;;;;;;0.16;54.04;95970.31;5030201;28;20041;-44
2021/03/21 09:43:38;;;;;;;6.25;3.25;;;;;;;0.35;54.28;95972.44;5029827;28;20049;-45
2021/03/21 09:46:07;;;;;;;5.80;3.13;;;;;;;0.41;53.91;95982.03;5028432;28;20053;-47
2021/03/21 09:48:44;;;;;;;6.93;3.30;;;;;;;0.63;53.23;95981.75;5030824;28;20050;-48
2021/03/21 09:51:22;;;;;;;5.90;3.40;;;;;;;0.39;53.70;95978.81;5038621;22;20056;-51
2021/03/21 09:54:12;;;;;;;5.88;3.13;;;;;;;0.65;52.48;95974.28;5029385;28;20049;-52
2021/03/21 09:57:07;;;;;;;5.63;3.13;;;;;;;0.50;53.10;95980.44;5028210;28;20060;-50
2021/03/21 09:59:56;;;;;;;5.63;2.80;;;;;;;0.33;52.40;95974.59;5029616;28;20326;-52
2021/03/21 10:02:40;;;;;;;6.45;3.30;;;;;;;0.22;52.88;95974.56;5027415;28;20406;-51
2021/03/21 10:05:11;;;;;;;7.78;3.30;;;;;;;0.46;52.34;95980.19;5028659;28;20037;-51
2021/03/21 10:08:19;;;;;;;6.78;2.90;;;;;;;0.11;53.14;95978.28;5026389;28;20092;-53
2021/03/21 10:10:56;;;;;;;5.63;3.33;;;;;;;0.34;53.06;95968.19;5030062;28;20046;-56
2021/03/21 10:13:31;;;;;;;6.13;3.03;;;;;;;0.30;52.47;95967.94;5025581;28;20479;-55
2021/03/21 10:16:31;;;;;;;6.78;3.50;;;;;;;0.28;52.48;95958.63;5032928;28;20053;-52
2021/03/21 10:19:02;;;;;;;5.97;3.33;;;;;;;0.19;52.74;95961.78;5014141;28;20147;-51
2021/03/21 10:21:32;;;;;;;5.20;2.92;;;;;;;0.31;52.60;95960.75;5031428;28;20064;-51
2021/03/21 10:23:59;;;;;;;7.05;3.35;;;;;;;0.30;53.21;95948.50;5028220;28;20053;-50
2021/03/21 10:26:29;;;;;;;8.63;3.80;;;;;;;0.32;53.22;95949.81;5029491;28;20046;-51
2021/03/21 10:29:22;;;;;;;7.15;3.67;;;;;;;0.27;53.35;95947.19;5036385;28;20111;-50
2021/03/21 10:32:08;;;;;;;6.07;3.20;;;;;;;0.48;53.21;95955.94;5038199;28;20063;-52
2021/03/21 10:34:39;;;;;;;6.05;3.05;;;;;;;0.55;53.17;95939.69;5037583;28;20042;-52
2021/03/21 10:37:41;;;;;;;6.10;3.97;;;;;;;0.58;53.41;95944.47;5037008;28;20136;-50
2021/03/21 10:40:23;;;;;;;6.57;3.33;;;;;;;1.10;53.10;95943.31;5023845;28;20075;-50
2021/03/21 10:42:56;;;;;;;8.43;4.47;;;;;;;0.72;53.36;95937.56;5029970;28;20045;-53
2021/03/21 10:45:31;;;;;;;6.90;3.92;;;;;;;0.85;53.14;95945.00;5032215;28;20091;-48
2021/03/21 10:48:08;;;;;;;5.82;3.75;;;;;;;0.81;53.33;95941.25;5028221;28;20057;-48
2021/03/21 10:50:57;;;;;;;5.80;3.75;;;;;;;0.55;53.35;95951.13;5029735;28;20064;-54
2021/03/21 10:53:28;;;;;;;7.75;4.18;;;;;;;0.58;53.77;95939.94;5032442;28;20104;-50
2021/03/21 10:56:20;;;;;;;7.35;3.65;;;;;;;0.54;53.61;95938.09;5031046;28;20057;-57
2021/03/21 10:58:47;;;;;;;4.22;2.35;;;;;;;0.41;53.31;95934.13;5031318;28;20120;-53
2021/03/21 11:01:16;;;;;;;6.25;3.58;;;;;;;0.63;53.39;95931.97;5028833;28;20054;-56
2021/03/21 11:04:01;;;;;;;6.93;3.70;;;;;;;0.59;54.67;95944.22;5030929;28;20053;-54
2021/03/21 11:06:53;;;;;;;6.30;3.45;;;;;;;0.65;55.50;95924.53;5029075;28;20060;-53
2021/03/21 11:09:21;;;;;;;10.55;4.70;;;;;;;0.77;56.76;95923.44;5031068;28;20053;-54
2021/03/21 11:11:49;;;;;;;6.65;3.53;;;;;;;0.64;56.52;95917.59;5035790;28;20457;-55
2021/03/21 11:14:28;;;;;;;5.60;3.58;;;;;;;0.55;57.64;95913.06;5036383;28;20046;-54
2021/03/21 11:17:32;;;;;;;6.25;3.88;;;;;;;1.08;58.40;95908.16;5034418;28;20406;-54
2021/03/21 11:19:58;;;;;;;4.60;2.60;;;;;;;0.84;56.99;95908.75;5043676;28;20562;-55
2021/03/21 11:22:32;;;;;;;9.05;3.45;;;;;;;0.97;57.25;95906.59;5046778;28;20049;-51
2021/03/21 11:25:00;;;;;;;9.98;3.80;;;;;;;1.13;57.35;95905.47;5030861;28;20049;-58
2021/03/21 11:27:32;;;;;;;9.60;4.47;;;;;;;1.06;57.49;95897.75;5034024;28;20439;-51
2021/03/21 11:30:17;;;;;;;6.83;3.53;;;;;;;1.47;56.38;95900.25;5034722;28;20042;-54
2021/03/21 11:32:43;;;;;;;6.80;4.03;;;;;;;1.14;57.20;95904.41;5048414;28;20302;-53
2021/03/21 11:35:25;;;;;;;6.57;3.80;;;;;;;1.28;56.98;95899.28;5030611;28;20092;-61
2021/03/21 11:37:55;;;;;;;9.63;3.28;;;;;;;0.81;58.52;95900.50;5031956;28;20053;-56
2021/03/21 11:40:29;;;;;;;8.32;4.47;;;;;;;0.76;59.29;95904.00;5047213;28;20056;-57
2021/03/21 11:43:05;;;;;;;8.18;4.43;;;;;;;0.79;59.74;95897.34;5044559;28;20052;-54
2021/03/21 11:45:36;;;;;;;8.27;4.50;;;;;;;0.78;59.63;95907.19;5032203;28;20134;-59
2021/03/21 11:48:09;;;;;;;7.68;3.92;;;;;;;0.45;60.23;95903.22;5032976;28;20077;-55
2021/03/21 11:50:39;;;;;;;7.43;4.20;;;;;;;0.73;60.64;95896.53;5033719;28;20045;-56
2021/03/21 11:53:11;;;;;;;7.45;4.15;;;;;;;0.76;60.63;95897.88;5033700;28;20080;-53
2021/03/21 11:55:41;;;;;;;12.27;4.78;;;;;;;0.91;60.47;95892.47;5049677;28;20045;-56
2021/03/21 11:58:22;;;;;;;6.45;4.32;;;;;;;0.80;60.12;95890.94;5044392;28;20489;-56
2021/03/21 12:01:20;;;;;;;9.10;4.80;;;;;;;0.76;59.38;95888.00;5033204;28;20132;-56
2021/03/21 12:03:56;;;;;;;6.57;3.72;;;;;;;0.59;60.17;95882.19;5023090;28;20048;-57
2021/03/21 12:06:47;;;;;;;7.32;4.63;;;;;;;0.70;60.58;95876.56;5028239;28;20061;-56
2021/03/21 12:09:30;;;;;;;7.18;3.92;;;;;;;0.34;61.58;95877.72;5033655;28;20068;-57
2021/03/21 12:12:01;;;;;;;8.23;4.37;;;;;;;0.49;60.85;95877.69;5036265;28;20057;-56
2021/03/21 12:14:30;;;;;;;8.45;4.03;;;;;;;0.39;61.18;95873.19;5034126;28;20478;-57
2021/03/21 12:17:22;;;;;;;10.07;5.78;;;;;;;0.40;61.76;95866.00;5042844;28;20053;-56
2021/03/21 12:19:54;;;;;;;6.43;4.28;;;;;;;0.23;62.02;95864.44;5032382;28;20054;-57
2021/03/21 12:22:36;;;;;;;8.43;4.82;;;;;;;0.50;61.52;95868.63;5031253;28;20060;-56
2021/03/21 12:25:31;;;;;;;9.80;4.95;;;;;;;0.50;61.61;95860.66;5031659;28;20045;-52
2021/03/21 12:28:12;;;;;;;8.98;4.85;;;;;;;0.47;62.36;95853.19;5031399;28;20053;-50